Time;durP1;ratioP1;P1;durP2;ratioP2;P2;SDS_P1;SDS_P2;PMS_P1;PMS_P2;Temp;Humidity;BMP_temperature;BMP_pressure;BME280_temperature;BME280_humidity;BME280_pressure;Samples;Min_cycle;Max_cycle;Signal;HPM_P1;HPM_P2
2022/06/14 00:03:15;;;;;;;8.82;2.80;;;12.60;99.90;;;;;;4885109;29;20054;-84
2022/06/14 00:05:41;;;;;;;7.63;2.17;;;12.50;99.90;;;;;;4873560;29;20115;-78
2022/06/14 00:08:07;;;;;;;5.47;2.40;;;12.40;99.90;;;;;;4870742;29;20056;-78
2022/06/14 00:10:33;;;;;;;8.73;2.47;;;12.40;99.90;;;;;;4883157;29;20036;-77
2022/06/14 00:12:59;;;;;;;8.15;2.30;;;12.30;99.90;;;;;;4865719;29;20106;-78
2022/06/14 00:15:26;;;;;;;7.88;3.08;;;12.30;99.90;;;;;;4885252;29;20564;-78
2022/06/14 00:17:51;;;;;;;9.05;3.08;;;12.20;99.90;;;;;;4853583;29;20056;-78
2022/06/14 00:20:17;;;;;;;5.43;2.72;;;12.10;99.90;;;;;;4852708;29;20100;-78
2022/06/14 00:22:43;;;;;;;6.95;2.63;;;12.00;99.90;;;;;;4850844;29;20032;-78
2022/06/14 00:25:26;;;;;;;6.72;2.78;;;12.00;99.90;;;;;;4883386;29;20040;-77
2022/06/14 00:27:53;;;;;;;8.25;3.20;;;12.00;99.90;;;;;;4899278;29;20090;-78
2022/06/14 00:30:20;;;;;;;6.13;2.97;;;12.00;99.90;;;;;;4883558;29;20071;-78
2022/06/14 00:32:46;;;;;;;6.03;3.13;;;11.90;99.90;;;;;;4883485;29;20087;-77
2022/06/14 00:35:11;;;;;;;7.22;2.75;;;11.80;99.90;;;;;;4881742;29;20489;-78
2022/06/14 00:37:37;;;;;;;7.13;3.10;;;11.80;99.90;;;;;;4882723;29;20112;-78
2022/06/14 00:40:04;;;;;;;5.65;3.03;;;11.60;99.90;;;;;;4863725;29;20407;-78
2022/06/14 00:42:30;;;;;;;5.55;3.20;;;11.80;99.90;;;;;;4884254;29;20453;-77
2022/06/14 00:45:07;;;;;;;7.75;3.50;;;11.80;99.90;;;;;;4849816;29;20048;-78
2022/06/14 00:47:38;;;;;;;10.40;3.03;;;11.80;99.90;;;;;;4884385;29;20621;-77
2022/06/14 00:50:11;;;;;;;5.15;3.20;;;11.70;99.90;;;;;;4883876;29;20051;-77
2022/06/14 00:52:42;;;;;;;6.25;3.03;;;11.60;99.90;;;;;;4895297;29;20092;-77
2022/06/14 00:55:29;;;;;;;9.10;3.10;;;11.60;99.90;;;;;;4884087;29;20055;-77
2022/06/14 00:58:08;;;;;;;6.47;3.00;;;11.60;99.90;;;;;;4893076;29;20067;-78
2022/06/14 01:00:40;;;;;;;6.60;3.20;;;11.60;99.90;;;;;;4873410;29;20044;-78
2022/06/14 01:03:14;;;;;;;6.63;3.13;;;11.60;99.90;;;;;;4881978;29;20040;-77
2022/06/14 01:06:08;;;;;;;7.10;3.50;;;11.60;99.90;;;;;;4896745;29;20036;-77
2022/06/14 01:08:49;;;;;;;7.22;3.45;;;11.50;99.90;;;;;;4884824;29;20485;-78
2022/06/14 01:11:44;;;;;;;10.32;3.40;;;11.50;99.90;;;;;;4897287;29;20139;-77
2022/06/14 01:14:14;;;;;;;6.85;3.38;;;11.40;99.90;;;;;;4891554;29;20200;-78
2022/06/14 01:16:40;;;;;;;7.72;3.97;;;11.40;99.90;;;;;;4893225;29;20079;-77
2022/06/14 01:19:17;;;;;;;8.23;3.35;;;11.40;99.90;;;;;;4867671;29;20055;-77
2022/06/14 01:21:53;;;;;;;13.00;3.70;;;11.40;99.90;;;;;;4889012;29;20484;-77
2022/06/14 01:24:21;;;;;;;8.45;3.42;;;11.40;99.90;;;;;;4882623;29;20032;-77
2022/06/14 01:26:48;;;;;;;10.05;4.40;;;11.40;99.90;;;;;;4879567;29;20037;-78
2022/06/14 01:29:15;;;;;;;10.77;3.90;;;11.40;99.90;;;;;;4881028;29;20122;-77
2022/06/14 01:31:41;;;;;;;7.22;3.00;;;11.40;99.90;;;;;;4862342;29;20379;-78
2022/06/14 01:34:08;;;;;;;7.90;3.67;;;11.40;99.90;;;;;;4895632;29;20044;-78
2022/06/14 01:36:39;;;;;;;7.53;4.20;;;11.20;99.90;;;;;;4882632;29;20493;-78
2022/06/14 01:39:09;;;;;;;7.97;3.60;;;11.20;99.90;;;;;;4898682;29;20044;-77
2022/06/14 01:41:58;;;;;;;6.60;3.40;;;11.20;99.90;;;;;;4883894;29;20473;-78
2022/06/14 01:44:53;;;;;;;6.18;3.08;;;11.20;99.90;;;;;;4895790;29;20045;-77
2022/06/14 01:47:38;;;;;;;9.85;3.75;;;11.10;99.90;;;;;;4880131;29;20042;-77
2022/06/14 01:53:28;;;;;;;9.43;4.03;;;11.00;99.90;;;;;;4898483;29;20052;-78
2022/06/14 01:56:08;;;;;;;7.20;3.55;;;10.90;99.90;;;;;;4880430;29;20055;-77
2022/06/14 01:58:53;;;;;;;5.68;3.25;;;10.90;99.90;;;;;;4896939;29;20047;-77
2022/06/14 02:01:57;;;;;;;9.40;3.60;;;11.00;99.90;;;;;;4891491;29;20044;-77
2022/06/14 02:04:38;;;;;;;7.25;3.42;;;10.90;99.90;;;;;;4873082;29;20047;-77
2022/06/14 02:07:07;;;;;;;9.35;3.47;;;10.90;99.90;;;;;;4895781;29;20045;-78
2022/06/14 02:10:08;;;;;;;6.53;3.55;;;10.90;99.90;;;;;;4895055;29;20044;-78
2022/06/14 02:13:03;;;;;;;7.40;3.75;;;10.90;99.90;;;;;;4860849;29;20052;-77
2022/06/14 02:16:03;;;;;;;11.88;3.60;;;10.90;99.90;;;;;;4897346;29;20047;-77
2022/06/14 02:19:07;;;;;;;9.70;3.42;;;10.90;99.90;;;;;;4880580;29;20136;-77
2022/06/14 02:21:41;;;;;;;9.00;3.53;;;10.90;99.90;;;;;;4863940;29;20139;-77
2022/06/14 02:24:27;;;;;;;7.75;3.90;;;10.90;99.90;;;;;;4884859;29;20082;-78
2022/06/14 02:27:05;;;;;;;12.20;4.07;;;10.90;99.90;;;;;;4881883;29;20041;-77
2022/06/14 02:29:45;;;;;;;11.98;3.90;;;10.90;99.90;;;;;;4882525;29;20136;-77
2022/06/14 02:32:22;;;;;;;11.35;3.72;;;10.80;99.90;;;;;;4894439;29;20103;-77
2022/06/14 02:35:11;;;;;;;7.88;4.32;;;10.80;99.90;;;;;;4901065;29;20040;-78
2022/06/14 02:38:08;;;;;;;9.43;4.00;;;10.80;99.90;;;;;;4883968;29;20413;-77
2022/06/14 02:40:52;;;;;;;9.73;4.50;;;10.80;99.90;;;;;;4884954;29;20044;-78
2022/06/14 02:43:34;;;;;;;8.10;3.65;;;10.70;99.90;;;;;;4896725;29;20090;-77
2022/06/14 02:46:15;;;;;;;8.77;4.10;;;10.70;99.90;;;;;;4875154;29;20055;-77
2022/06/14 02:48:50;;;;;;;9.00;4.55;;;10.60;99.90;;;;;;4882428;29;20392;-77
2022/06/14 02:52:15;;;;;;;6.50;3.65;;;10.60;99.90;;;;;;4898466;29;20044;-77
2022/06/14 02:54:55;;;;;;;10.07;3.67;;;10.60;99.90;;;;;;4810889;29;20701;-77
2022/06/14 02:57:48;;;;;;;9.93;3.78;;;10.50;99.90;;;;;;4820599;29;20050;-78
2022/06/14 03:00:30;;;;;;;7.63;3.38;;;10.60;99.90;;;;;;4889195;29;20059;-78
2022/06/14 03:03:20;;;;;;;9.77;3.97;;;10.60;99.90;;;;;;4901071;29;20072;-78
2022/06/14 03:06:02;;;;;;;6.88;3.38;;;10.60;99.90;;;;;;4882434;29;20470;-78
2022/06/14 03:08:41;;;;;;;8.90;3.70;;;10.50;99.90;;;;;;4885020;29;20050;-78
2022/06/14 03:11:30;;;;;;;7.50;4.00;;;10.50;99.90;;;;;;4885062;29;20051;-78
2022/06/14 03:14:04;;;;;;;7.28;3.60;;;10.50;99.90;;;;;;4913099;29;20123;-78
2022/06/14 03:16:42;;;;;;;6.88;3.85;;;10.50;99.90;;;;;;4903291;29;20501;-77
2022/06/14 03:19:21;;;;;;;7.78;4.32;;;10.50;99.90;;;;;;4884646;29;20441;-78
2022/06/14 03:22:16;;;;;;;7.55;4.00;;;10.50;99.90;;;;;;4896961;29;20123;-77
2022/06/14 03:25:05;;;;;;;8.65;4.07;;;10.50;99.90;;;;;;4884603;29;20044;-78
2022/06/14 03:27:36;;;;;;;10.15;4.10;;;10.40;99.90;;;;;;4887719;29;20098;-78
2022/06/14 03:30:13;;;;;;;7.55;3.45;;;10.40;99.90;;;;;;4900996;29;20405;-77
2022/06/14 03:32:59;;;;;;;11.52;4.20;;;10.40;99.90;;;;;;4905019;29;20055;-78
2022/06/14 03:35:34;;;;;;;9.90;4.20;;;10.40;99.90;;;;;;4899503;29;20074;-77
2022/06/14 03:38:37;;;;;;;7.63;3.95;;;10.30;99.90;;;;;;4886643;29;20059;-78
2022/06/14 03:41:04;;;;;;;9.70;3.95;;;10.30;99.90;;;;;;4872030;29;20205;-78
2022/06/14 03:43:31;;;;;;;7.95;3.97;;;10.30;99.90;;;;;;4885152;29;20059;-78
2022/06/14 03:46:10;;;;;;;7.18;3.72;;;10.30;99.90;;;;;;4888153;29;20099;-77
2022/06/14 03:48:38;;;;;;;10.52;4.68;;;10.50;99.90;;;;;;4885477;29;20519;-86
2022/06/14 03:51:10;;;;;;;9.88;4.00;;;10.40;99.90;;;;;;4897504;29;20044;-85
2022/06/14 03:53:54;;;;;;;7.25;4.03;;;10.40;99.90;;;;;;4883403;29;20172;-85
2022/06/14 03:56:44;;;;;;;7.45;3.80;;;10.40;99.90;;;;;;4880304;29;20040;-84
2022/06/14 03:59:21;;;;;;;10.25;3.88;;;10.40;99.90;;;;;;4896744;29;20045;-85
2022/06/14 04:02:05;;;;;;;11.93;4.03;;;10.50;99.90;;;;;;4900842;29;20044;-85
2022/06/14 04:04:40;;;;;;;13.02;4.00;;;10.50;99.90;;;;;;4885381;29;20075;-85
2022/06/14 04:07:28;;;;;;;9.80;4.00;;;10.50;99.90;;;;;;4899711;29;20041;-85
2022/06/14 04:10:10;;;;;;;11.45;3.97;;;10.50;99.90;;;;;;4886722;29;20102;-85
2022/06/14 04:13:08;;;;;;;9.73;4.00;;;10.50;99.90;;;;;;4890600;29;20052;-85
2022/06/14 04:15:54;;;;;;;9.35;3.70;;;10.50;99.90;;;;;;4882780;29;20048;-85
2022/06/14 04:18:41;;;;;;;12.13;3.88;;;10.60;99.90;;;;;;4892877;29;20064;-84
2022/06/14 04:21:32;;;;;;;8.02;3.58;;;10.60;99.90;;;;;;4923555;29;20044;-85
2022/06/14 04:24:22;;;;;;;13.27;4.18;;;10.60;99.90;;;;;;4908810;29;20044;-85
2022/06/14 04:27:14;;;;;;;9.52;3.80;;;10.70;99.90;;;;;;4892167;29;20101;-86
2022/06/14 04:30:25;;;;;;;11.05;3.72;;;10.70;99.90;;;;;;4880866;29;20128;-85
2022/06/14 04:32:54;;;;;;;11.70;4.70;;;10.70;99.90;;;;;;4871456;29;20058;-85
2022/06/14 04:35:26;;;;;;;11.82;4.30;;;10.70;99.90;;;;;;4916116;29;20152;-85
2022/06/14 04:37:58;;;;;;;9.32;3.65;;;10.70;99.90;;;;;;4882166;29;20040;-85
2022/06/14 04:40:35;;;;;;;10.32;3.80;;;10.70;99.90;;;;;;4885512;29;20412;-85
2022/06/14 04:43:09;;;;;;;11.15;3.67;;;10.80;99.90;;;;;;4882204;29;20122;-85
2022/06/14 04:45:54;;;;;;;9.38;3.55;;;10.80;99.90;;;;;;4885413;29;20040;-85
2022/06/14 04:48:38;;;;;;;9.93;3.60;;;10.80;99.90;;;;;;4896240;29;20040;-85
2022/06/14 04:51:12;;;;;;;10.88;3.42;;;10.90;99.90;;;;;;4884213;29;20040;-86
2022/06/14 04:54:05;;;;;;;9.82;3.42;;;10.90;99.90;;;;;;4880682;29;20072;-85
2022/06/14 04:56:56;;;;;;;10.45;3.50;;;10.90;99.90;;;;;;4898648;29;20196;-85
2022/06/14 04:59:40;;;;;;;11.02;3.40;;;11.00;99.90;;;;;;4896944;29;20108;-85
2022/06/14 05:02:14;;;;;;;10.70;3.40;;;11.00;99.90;;;;;;4894214;29;20048;-86
2022/06/14 05:04:49;;;;;;;8.57;3.47;;;11.10;99.90;;;;;;4894623;29;20069;-85
2022/06/14 05:07:15;;;;;;;13.45;3.72;;;11.20;99.90;;;;;;4898843;29;20048;-85
2022/06/14 05:09:47;;;;;;;13.50;3.65;;;11.20;99.90;;;;;;4883121;29;20417;-85
2022/06/14 05:12:29;;;;;;;11.32;3.25;;;11.20;99.90;;;;;;4884236;29;20092;-85
2022/06/14 05:15:09;;;;;;;6.97;3.63;;;11.30;99.90;;;;;;4902845;29;20489;-86
2022/06/14 05:17:44;;;;;;;9.18;3.55;;;11.30;99.90;;;;;;4900061;29;20057;-85
2022/06/14 05:20:15;;;;;;;10.95;3.38;;;11.40;99.90;;;;;;4892098;29;20115;-85
2022/06/14 05:23:10;;;;;;;9.27;3.28;;;11.40;99.90;;;;;;4884426;29;20048;-85
2022/06/14 05:25:59;;;;;;;11.65;3.33;;;11.50;99.90;;;;;;4878711;29;20413;-85
2022/06/14 05:28:57;;;;;;;7.80;3.55;;;11.60;99.90;;;;;;4853604;29;20104;-86
2022/06/14 05:31:58;;;;;;;8.40;3.58;;;11.70;99.90;;;;;;4896569;29;20044;-85
2022/06/14 05:34:41;;;;;;;8.75;3.00;;;11.80;99.90;;;;;;4897389;29;20055;-85
2022/06/14 05:37:19;;;;;;;9.70;3.60;;;11.80;99.90;;;;;;4878245;29;20494;-85
2022/06/14 05:39:53;;;;;;;10.57;3.63;;;11.90;99.90;;;;;;4897179;29;20052;-85
2022/06/14 05:42:25;;;;;;;7.95;3.17;;;12.00;99.90;;;;;;4877599;29;20051;-85
2022/06/14 05:44:57;;;;;;;9.77;3.47;;;12.10;99.90;;;;;;4879844;29;20038;-84
2022/06/14 05:47:43;;;;;;;7.47;2.80;;;12.20;99.90;;;;;;4891775;29;20047;-83
2022/06/14 05:50:14;;;;;;;9.25;3.38;;;12.30;99.90;;;;;;4877918;29;20052;-84
2022/06/14 05:52:45;;;;;;;8.95;3.08;;;12.30;99.90;;;;;;4898196;29;20045;-84
2022/06/14 05:55:36;;;;;;;13.95;3.85;;;12.40;99.90;;;;;;4902051;29;20064;-84
2022/06/14 05:58:17;;;;;;;9.02;3.28;;;12.50;99.90;;;;;;4899570;29;20068;-84
2022/06/14 06:00:54;;;;;;;9.95;3.40;;;12.60;99.90;;;;;;4882594;29;20137;-84
2022/06/14 06:03:25;;;;;;;7.00;3.22;;;12.60;99.90;;;;;;4900108;29;20051;-83
2022/06/14 06:05:59;;;;;;;9.63;3.30;;;12.80;99.90;;;;;;4904692;29;20136;-85
2022/06/14 06:08:40;;;;;;;5.30;3.10;;;12.80;99.90;;;;;;4877036;29;20095;-85
2022/06/14 06:11:43;;;;;;;11.00;3.58;;;12.90;99.90;;;;;;4881343;29;20044;-85
2022/06/14 06:14:19;;;;;;;11.07;3.85;;;13.00;99.90;;;;;;4885898;29;20119;-83
2022/06/14 06:17:02;;;;;;;10.45;3.47;;;13.10;99.90;;;;;;4899146;29;20040;-83
2022/06/14 06:19:39;;;;;;;15.07;4.10;;;13.20;99.90;;;;;;4899438;29;20063;-84
2022/06/14 06:22:29;;;;;;;9.77;3.85;;;13.30;99.90;;;;;;4888022;29;20051;-83
2022/06/14 06:25:09;;;;;;;12.38;3.80;;;13.40;99.90;;;;;;4890639;29;20044;-84
2022/06/14 06:28:04;;;;;;;10.18;3.63;;;13.60;99.90;;;;;;4883781;29;20036;-83
2022/06/14 06:30:43;;;;;;;12.50;3.33;;;13.70;99.90;;;;;;4890288;29;20060;-85
2022/06/14 06:33:12;;;;;;;11.02;3.97;;;13.80;99.90;;;;;;4885824;29;20062;-84
2022/06/14 06:36:13;;;;;;;9.52;2.97;;;14.00;99.90;;;;;;4899998;29;20039;-82
2022/06/14 06:38:45;;;;;;;9.70;3.40;;;14.20;99.90;;;;;;4893686;29;20048;-83
2022/06/14 06:44:38;;;;;;;10.43;3.60;;;14.60;99.90;;;;;;4868065;29;20052;-83
2022/06/14 06:47:19;;;;;;;9.73;3.00;;;14.80;99.90;;;;;;4885770;29;20041;-83
2022/06/14 06:50:00;;;;;;;8.43;3.42;;;14.90;99.90;;;;;;4883897;29;20051;-83
2022/06/14 06:52:45;;;;;;;11.27;3.40;;;15.00;99.90;;;;;;4884833;29;20041;-84
2022/06/14 06:55:16;;;;;;;12.23;3.38;;;15.10;99.90;;;;;;4888399;29;20113;-83
2022/06/14 06:57:45;;;;;;;12.13;3.13;;;15.20;99.90;;;;;;4900099;29;20051;-83
2022/06/14 07:00:14;;;;;;;7.15;2.75;;;15.40;99.90;;;;;;4897529;29;20044;-83
2022/06/14 07:02:49;;;;;;;9.93;3.45;;;15.60;99.90;;;;;;4882233;29;20100;-85
2022/06/14 07:05:17;;;;;;;7.72;2.92;;;15.60;99.90;;;;;;4885110;29;20043;-84
2022/06/14 07:07:42;;;;;;;9.48;3.05;;;15.60;99.90;;;;;;4888286;29;20047;-85
2022/06/14 07:10:18;;;;;;;11.88;3.53;;;15.60;99.90;;;;;;4896680;29;20052;-84
2022/06/14 07:12:56;;;;;;;10.82;3.70;;;15.60;99.90;;;;;;4896692;29;20044;-85
2022/06/14 07:15:44;;;;;;;8.75;3.38;;;15.60;99.90;;;;;;4894435;29;20043;-85
2022/06/14 07:18:39;;;;;;;8.60;3.40;;;15.50;99.90;;;;;;4917756;29;20409;-85
2022/06/14 07:21:15;;;;;;;9.85;3.55;;;15.40;99.90;;;;;;4881298;29;20049;-85
2022/06/14 07:24:07;;;;;;;11.53;3.70;;;15.50;99.90;;;;;;4890743;29;20040;-85
2022/06/14 07:26:49;;;;;;;9.57;3.05;;;15.50;99.90;;;;;;4891995;29;20068;-85
2022/06/14 07:29:37;;;;;;;11.27;3.25;;;15.70;99.90;;;;;;4881386;29;20040;-85
2022/06/14 07:32:21;;;;;;;7.72;2.92;;;15.90;99.90;;;;;;4900750;29;20512;-85
2022/06/14 07:34:48;;;;;;;10.13;2.88;;;16.00;99.90;;;;;;4899876;29;20047;-85
2022/06/14 07:37:38;;;;;;;7.72;2.28;;;16.00;99.90;;;;;;4891595;29;20105;-84
2022/06/14 07:40:27;;;;;;;6.35;2.25;;;15.90;99.90;;;;;;4895761;29;20045;-85
2022/06/14 07:43:02;;;;;;;8.38;2.00;;;15.90;99.90;;;;;;4874295;29;20043;-84
2022/06/14 07:45:38;;;;;;;7.57;2.20;;;16.10;99.90;;;;;;4877160;29;20482;-85
2022/06/14 07:48:08;;;;;;;6.03;1.73;;;16.50;99.90;;;;;;4894115;29;20071;-85
2022/06/14 07:50:48;;;;;;;9.57;1.60;;;17.00;99.90;;;;;;4901805;29;20050;-85
2022/06/14 07:53:39;;;;;;;7.32;1.80;;;17.60;99.90;;;;;;4882121;29;20564;-86
2022/06/14 07:56:21;;;;;;;7.85;2.05;;;17.90;99.90;;;;;;4898521;29;20048;-85
2022/06/14 07:59:03;;;;;;;7.80;2.20;;;17.90;99.90;;;;;;4896260;29;20434;-85
2022/06/14 08:01:54;;;;;;;5.63;1.52;;;17.60;99.90;;;;;;4879469;29;20056;-85
2022/06/14 08:04:45;;;;;;;6.90;1.98;;;17.40;99.90;;;;;;4894398;29;20103;-85
2022/06/14 08:07:17;;;;;;;8.68;1.77;;;17.00;99.90;;;;;;4882539;29;20489;-85
2022/06/14 08:10:01;;;;;;;4.90;1.38;;;17.00;99.90;;;;;;4899269;29;20047;-85
2022/06/14 08:12:53;;;;;;;5.57;1.55;;;17.20;99.90;;;;;;4881238;29;20490;-85
2022/06/14 08:15:33;;;;;;;3.70;1.67;;;17.70;99.90;;;;;;4892060;29;20036;-85
2022/06/14 08:18:02;;;;;;;5.22;1.55;;;18.20;99.90;;;;;;4881545;29;20066;-85
2022/06/14 08:21:01;;;;;;;7.18;1.60;;;18.50;99.90;;;;;;4900385;29;20048;-85
2022/06/14 08:23:30;;;;;;;4.88;2.03;;;18.80;99.90;;;;;;4892722;29;20452;-83
2022/06/14 08:26:09;;;;;;;7.05;1.88;;;19.00;99.90;;;;;;4884492;29;20045;-83
2022/06/14 08:28:45;;;;;;;6.07;1.65;;;19.20;99.90;;;;;;4884305;29;20169;-82
2022/06/14 08:31:33;;;;;;;4.78;1.38;;;19.20;99.90;;;;;;4877689;29;20044;-83
2022/06/14 08:34:28;;;;;;;4.70;1.40;;;19.10;99.90;;;;;;4895528;29;20138;-83
2022/06/14 08:37:15;;;;;;;7.53;1.52;;;19.20;99.90;;;;;;4889755;29;20067;-83
2022/06/14 08:39:55;;;;;;;3.80;1.50;;;19.40;99.90;;;;;;4883147;29;20068;-83
2022/06/14 08:42:34;;;;;;;7.90;1.80;;;19.70;99.90;;;;;;4878858;29;20083;-83
2022/06/14 08:45:09;;;;;;;3.75;1.70;;;19.90;99.90;;;;;;4895007;29;20037;-83
2022/06/14 08:47:50;;;;;;;8.93;1.60;;;19.80;99.90;;;;;;4878401;29;20104;-83
2022/06/14 08:50:25;;;;;;;3.88;1.55;;;19.50;99.90;;;;;;4883217;29;20063;-83
2022/06/14 08:53:17;;;;;;;2.95;1.48;;;19.40;99.90;;;;;;4899126;29;20048;-83
2022/06/14 08:56:15;;;;;;;7.25;1.45;;;19.30;99.80;;;;;;4885966;29;20043;-83
2022/06/14 08:58:57;;;;;;;6.18;1.70;;;19.10;99.70;;;;;;4874438;29;20509;-83
2022/06/14 09:01:57;;;;;;;4.15;1.60;;;18.90;99.90;;;;;;4881945;29;20044;-84
2022/06/14 09:05:01;;;;;;;4.00;1.33;;;18.70;99.60;;;;;;4885354;29;20043;-84
2022/06/14 09:08:04;;;;;;;4.88;1.70;;;18.60;99.90;;;;;;4876456;29;20052;-83
2022/06/14 09:11:07;;;;;;;3.97;1.35;;;18.50;99.90;;;;;;4895287;29;20126;-82
2022/06/14 09:13:35;;;;;;;3.08;1.40;;;18.40;99.90;;;;;;4904148;29;20083;-83
2022/06/14 09:16:13;;;;;;;3.65;1.50;;;18.60;99.90;;;;;;4881637;29;20060;-83
2022/06/14 09:18:53;;;;;;;3.55;1.38;;;18.90;99.90;;;;;;4901640;29;20048;-83
2022/06/14 09:21:57;;;;;;;3.63;1.38;;;19.20;99.70;;;;;;4872015;29;20500;-83
2022/06/14 09:24:42;;;;;;;4.05;1.30;;;19.40;99.90;;;;;;4892154;29;20044;-83
2022/06/14 09:27:25;;;;;;;6.10;1.58;;;19.20;98.10;;;;;;4888773;29;20086;-83
2022/06/14 09:30:06;;;;;;;4.78;1.52;;;19.00;99.40;;;;;;4916944;29;20048;-83
2022/06/14 09:33:10;;;;;;;3.88;1.50;;;18.80;99.90;;;;;;4902763;29;20036;-84
2022/06/14 09:35:48;;;;;;;4.38;1.50;;;18.60;99.50;;;;;;4919376;29;20394;-83
2022/06/14 09:38:57;;;;;;;4.97;1.60;;;18.40;99.90;;;;;;4882126;29;20048;-84
2022/06/14 09:41:53;;;;;;;3.88;1.30;;;18.30;99.90;;;;;;4902311;29;20071;-83
2022/06/14 09:44:45;;;;;;;4.32;1.60;;;18.20;99.90;;;;;;4888989;29;20048;-83
2022/06/14 09:47:23;;;;;;;6.28;1.88;;;18.30;99.90;;;;;;4910777;29;20051;-84
2022/06/14 09:50:24;;;;;;;5.15;1.48;;;18.30;99.90;;;;;;4912984;29;20126;-83
2022/06/14 09:53:11;;;;;;;4.82;1.48;;;18.50;99.60;;;;;;4886674;29;20053;-83
2022/06/14 09:55:59;;;;;;;3.53;1.67;;;18.70;99.30;;;;;;4885824;29;20109;-83
2022/06/14 09:58:49;;;;;;;5.47;1.42;;;18.90;98.80;;;;;;4891193;29;20044;-83
2022/06/14 10:01:25;;;;;;;5.32;1.48;;;19.10;97.60;;;;;;4894603;29;20045;-82
2022/06/14 10:04:16;;;;;;;4.55;1.17;;;19.40;98.70;;;;;;4885192;29;20036;-83
2022/06/14 10:06:58;;;;;;;3.83;1.35;;;19.60;98.40;;;;;;4877700;29;20184;-84
2022/06/14 10:09:45;;;;;;;5.45;1.75;;;19.80;96.80;;;;;;4891213;29;20071;-83
2022/06/14 10:12:35;;;;;;;5.47;1.50;;;19.90;98.30;;;;;;4844395;29;20345;-83
2022/06/14 10:15:18;;;;;;;7.10;2.30;;;19.80;97.70;;;;;;4883385;29;20127;-83
2022/06/14 10:18:01;;;;;;;12.98;2.10;;;19.60;97.70;;;;;;4881420;29;20501;-83
2022/06/14 10:20:45;;;;;;;6.60;1.60;;;19.40;98.70;;;;;;4868033;29;20076;-83
2022/06/14 10:23:32;;;;;;;6.00;1.65;;;19.40;98.40;;;;;;4861475;29;20049;-83
2022/06/14 10:29:32;;;;;;;5.60;2.00;;;19.10;98.90;;;;;;4885155;29;20052;-83
2022/06/14 10:32:07;;;;;;;4.55;1.50;;;19.00;98.80;;;;;;4874419;29;20040;-83
2022/06/14 10:34:48;;;;;;;3.72;1.50;;;19.00;98.90;;;;;;4883135;29;20056;-83
2022/06/14 10:37:43;;;;;;;3.22;1.50;;;19.10;99.00;;;;;;4868763;29;20512;-81
2022/06/14 10:40:09;;;;;;;3.45;2.08;;;19.10;98.50;;;;;;4878748;29;20041;-82
2022/06/14 10:42:42;;;;;;;4.38;1.63;;;19.20;98.90;;;;;;4869110;29;20393;-83
2022/06/14 10:45:17;;;;;;;4.50;1.30;;;19.20;98.40;;;;;;4888604;29;20052;-83
2022/06/14 10:47:44;;;;;;;;;;;19.20;97.30;;;;;;4867074;29;20048;-83
2022/06/14 10:50:33;;;;;;;4.15;1.65;;;19.30;97.80;;;;;;4866955;29;19919;-83
2022/06/14 10:53:44;;;;;;;4.30;1.90;;;19.30;98.10;;;;;;4864581;29;20120;-82
2022/06/14 10:56:09;;;;;;;7.05;1.58;;;19.40;95.50;;;;;;4895290;29;20091;-82
2022/06/14 10:58:44;;;;;;;4.70;1.60;;;19.40;97.00;;;;;;4884477;29;20089;-85
2022/06/14 11:01:31;;;;;;;4.47;1.80;;;19.60;96.80;;;;;;4871017;29;20045;-83
2022/06/14 11:04:11;;;;;;;3.85;1.55;;;19.80;96.70;;;;;;4867687;29;20045;-84
2022/06/14 11:07:13;;;;;;;3.83;1.55;;;20.00;96.40;;;;;;4896362;29;20102;-83
2022/06/14 11:10:03;;;;;;;3.80;1.75;;;20.10;95.60;;;;;;4869857;29;20040;-83
2022/06/14 11:12:44;;;;;;;5.00;1.33;;;20.00;95.50;;;;;;4878173;29;20498;-84
2022/06/14 11:15:18;;;;;;;4.00;1.58;;;20.10;95.60;;;;;;4868849;29;20506;-84
2022/06/14 11:17:56;;;;;;;6.03;1.77;;;20.10;95.70;;;;;;4884792;29;20581;-83
2022/06/14 11:20:35;;;;;;;3.17;1.25;;;20.10;96.10;;;;;;4866379;29;20053;-84
2022/06/14 11:23:07;;;;;;;4.00;1.70;;;20.10;96.60;;;;;;4877690;29;20119;-84
2022/06/14 11:25:56;;;;;;;3.38;1.30;;;20.00;95.50;;;;;;4868268;29;20051;-83
2022/06/14 11:28:30;;;;;;;3.80;1.70;;;19.90;94.80;;;;;;4882203;29;20048;-83
2022/06/14 11:31:27;;;;;;;7.30;1.85;;;19.70;95.40;;;;;;4881975;29;20040;-83
2022/06/14 11:34:06;;;;;;;3.47;1.30;;;19.60;94.70;;;;;;4890591;29;20123;-83
2022/06/14 11:37:02;;;;;;;4.85;1.42;;;19.40;95.30;;;;;;4912835;29;20048;-83
2022/06/14 11:39:37;;;;;;;4.90;1.23;;;19.30;95.20;;;;;;4874951;29;20095;-84
2022/06/14 11:42:49;;;;;;;4.07;1.40;;;19.30;96.10;;;;;;4861052;29;20661;-83
2022/06/14 11:45:33;;;;;;;4.60;1.30;;;19.40;96.80;;;;;;4861485;29;20131;-83
2022/06/14 11:48:14;;;;;;;5.68;1.50;;;19.40;96.60;;;;;;4865297;29;20127;-83
2022/06/14 11:50:58;;;;;;;2.55;1.30;;;19.40;96.70;;;;;;4865759;29;20383;-84
2022/06/14 11:53:39;;;;;;;5.50;1.30;;;19.40;96.30;;;;;;4866216;29;20051;-84
2022/06/14 11:56:44;;;;;;;4.35;1.60;;;19.40;95.70;;;;;;4875222;29;20056;-83
2022/06/14 11:59:32;;;;;;;5.95;1.60;;;19.40;94.50;;;;;;4866152;29;20047;-82
2022/06/14 12:02:15;;;;;;;3.90;1.50;;;19.50;96.10;;;;;;4865613;29;20504;-83
2022/06/14 12:05:07;;;;;;;4.30;1.50;;;19.60;94.70;;;;;;4878427;29;20045;-85
2022/06/14 12:07:41;;;;;;;3.42;1.13;;;19.90;94.10;;;;;;4865961;29;20123;-82
2022/06/14 12:10:15;;;;;;;5.70;1.60;;;20.10;93.90;;;;;;4875564;29;20167;-82
2022/06/14 12:12:47;;;;;;;2.97;1.27;;;20.20;94.10;;;;;;4864416;29;20040;-82
2022/06/14 12:15:31;;;;;;;2.50;1.10;;;20.50;93.00;;;;;;4864814;29;20120;-82
2022/06/14 12:18:01;;;;;;;3.30;1.08;;;20.70;91.90;;;;;;4861166;29;20060;-82
2022/06/14 12:20:27;;;;;;;4.72;1.45;;;20.90;91.90;;;;;;4880506;29;20044;-82
2022/06/14 12:22:55;;;;;;;3.08;1.35;;;21.10;91.20;;;;;;4867914;29;20073;-82
2022/06/14 12:28:46;;;;;;;3.63;1.35;;;21.70;92.10;;;;;;4881011;29;20056;-81
2022/06/14 12:31:38;;;;;;;3.70;1.25;;;21.70;91.50;;;;;;4870623;29;20413;-82
2022/06/14 12:34:24;;;;;;;2.90;1.40;;;21.60;91.40;;;;;;4884182;29;20048;-82
2022/06/14 12:37:23;;;;;;;2.83;1.40;;;21.40;87.80;;;;;;4865826;29;20435;-81
2022/06/14 12:39:54;;;;;;;2.95;1.33;;;21.40;90.60;;;;;;4880517;29;20056;-81
2022/06/14 12:42:39;;;;;;;3.30;1.42;;;21.80;90.70;;;;;;4882466;29;20040;-81
2022/06/14 12:45:24;;;;;;;3.42;1.42;;;22.30;90.40;;;;;;4885442;29;20116;-82
2022/06/14 12:48:17;;;;;;;4.07;1.50;;;22.70;89.50;;;;;;4884981;29;20124;-82
2022/06/14 12:50:49;;;;;;;2.60;1.30;;;22.90;85.30;;;;;;4870457;29;20169;-82
2022/06/14 12:53:42;;;;;;;3.45;1.48;;;22.60;83.60;;;;;;4868585;29;20049;-82
2022/06/14 12:56:28;;;;;;;4.75;1.50;;;22.40;84.60;;;;;;4908788;29;20401;-82
2022/06/14 12:58:56;;;;;;;2.00;1.27;;;22.20;84.60;;;;;;4882183;29;20063;-82
2022/06/14 13:01:47;;;;;;;3.50;1.38;;;21.90;86.70;;;;;;4885640;29;20071;-82
2022/06/14 13:04:21;;;;;;;3.63;1.40;;;21.90;86.40;;;;;;4890963;29;20044;-82
2022/06/14 13:07:20;;;;;;;5.13;1.60;;;21.90;85.20;;;;;;4893368;29;20141;-81
2022/06/14 13:10:19;;;;;;;3.88;1.15;;;21.60;83.40;;;;;;4877387;29;20561;-82
2022/06/14 13:13:15;;;;;;;3.63;1.50;;;21.40;84.60;;;;;;4891006;29;20049;-81
2022/06/14 13:15:56;;;;;;;;;;;21.30;84.80;;;;;;4866062;29;20531;-82
2022/06/14 13:18:40;;;;;;;3.42;1.17;;;21.20;89.10;;;;;;4868811;29;19923;-81
2022/06/14 13:21:23;;;;;;;5.63;1.75;;;21.20;89.50;;;;;;4868095;29;20063;-82
2022/06/14 13:24:15;;;;;;;4.82;1.20;;;21.20;87.40;;;;;;4866862;29;20044;-82
2022/06/14 13:26:59;;;;;;;2.92;1.48;;;21.20;87.70;;;;;;4884928;29;20045;-81
2022/06/14 13:29:50;;;;;;;2.72;1.35;;;21.30;88.20;;;;;;4866562;29;20051;-81
2022/06/14 13:32:47;;;;;;;3.75;1.35;;;21.40;88.30;;;;;;4868086;29;20513;-81
2022/06/14 13:35:19;;;;;;;2.80;1.50;;;21.40;85.40;;;;;;4885020;29;20108;-81
2022/06/14 13:37:59;;;;;;;3.72;1.17;;;21.20;86.00;;;;;;4881092;29;20047;-82
2022/06/14 13:40:43;;;;;;;6.35;1.60;;;21.20;86.60;;;;;;4882778;29;20108;-81
2022/06/14 13:43:26;;;;;;;8.50;1.45;;;21.10;87.50;;;;;;4884557;29;20059;-81
2022/06/14 13:46:00;;;;;;;4.18;1.48;;;21.20;88.30;;;;;;4883656;29;20088;-82
2022/06/14 13:48:38;;;;;;;14.50;1.50;;;21.20;87.10;;;;;;4885923;29;20071;-81
2022/06/14 13:51:16;;;;;;;2.85;1.30;;;21.30;88.80;;;;;;4869446;29;20052;-81
2022/06/14 13:54:06;;;;;;;9.50;2.35;;;21.40;85.90;;;;;;4864346;29;20052;-81
2022/06/14 13:56:47;;;;;;;8.90;2.00;;;21.40;86.20;;;;;;4885642;29;20076;-80
2022/06/14 13:59:26;;;;;;;10.50;1.52;;;21.30;87.20;;;;;;4881907;29;20036;-81
2022/06/14 14:02:23;;;;;;;5.20;1.60;;;21.50;86.30;;;;;;4864894;29;20151;-81
2022/06/14 14:05:06;;;;;;;5.10;1.33;;;21.70;86.60;;;;;;4903875;29;20496;-81
2022/06/14 14:07:59;;;;;;;2.85;1.30;;;22.20;87.10;;;;;;4868991;29;20052;-82
2022/06/14 14:10:37;;;;;;;2.75;1.20;;;22.60;85.30;;;;;;4870045;29;20056;-82
2022/06/14 14:13:24;;;;;;;8.10;1.67;;;22.90;82.70;;;;;;4885888;29;20040;-81
2022/06/14 14:16:29;;;;;;;2.50;1.55;;;23.20;81.40;;;;;;4866146;29;20049;-81